Time;durP1;ratioP1;P1;durP2;ratioP2;P2;SDS_P1;SDS_P2;PMS_P1;PMS_P2;Temp;Humidity;BMP_temperature;BMP_pressure;BME280_temperature;BME280_humidity;BME280_pressure;Samples;Min_cycle;Max_cycle;Signal;HPM_P1;HPM_P2
2022/10/08 00:00:48;;;;;;;2.03;1.42;;;15.60;67.20;;;;;;5033379;28;20476;-70
2022/10/08 00:03:15;;;;;;;3.58;1.50;;;15.60;67.30;;;;;;5014791;28;20539;-70
2022/10/08 00:05:41;;;;;;;1.80;1.35;;;15.60;67.50;;;;;;5013233;28;20022;-69
2022/10/08 00:08:08;;;;;;;3.78;1.30;;;15.60;67.50;;;;;;5013081;28;20021;-69
2022/10/08 00:10:35;;;;;;;2.38;1.15;;;15.60;67.60;;;;;;5010024;28;20103;-69
2022/10/08 00:13:02;;;;;;;3.80;0.98;;;15.60;67.70;;;;;;5007209;28;20120;-71
2022/10/08 00:15:28;;;;;;;7.28;1.35;;;15.60;67.80;;;;;;5011393;28;20037;-71
2022/10/08 00:17:54;;;;;;;3.97;1.58;;;15.60;67.90;;;;;;5020193;28;20140;-71
2022/10/08 00:20:21;;;;;;;2.47;0.95;;;15.70;68.00;;;;;;5020171;28;20032;-71
2022/10/08 00:22:48;;;;;;;2.72;1.25;;;15.60;67.80;;;;;;5032838;28;20026;-71
2022/10/08 00:25:13;;;;;;;3.90;1.42;;;15.70;68.00;;;;;;5005210;28;20454;-71
2022/10/08 00:27:39;;;;;;;2.40;1.00;;;15.70;67.80;;;;;;5008058;28;20113;-71
2022/10/08 00:30:06;;;;;;;2.90;0.93;;;15.70;67.90;;;;;;5007931;28;20465;-71
2022/10/08 00:32:31;;;;;;;4.50;1.23;;;15.70;68.00;;;;;;5008768;28;20045;-71
2022/10/08 00:34:57;;;;;;;3.55;1.23;;;15.80;68.10;;;;;;5012706;28;20026;-71
2022/10/08 00:37:24;;;;;;;1.02;0.90;;;15.80;68.10;;;;;;5002599;28;20128;-71
2022/10/08 00:39:50;;;;;;;4.95;1.02;;;15.80;68.30;;;;;;5019103;28;20562;-71
2022/10/08 00:42:16;;;;;;;2.10;1.38;;;15.70;68.30;;;;;;5023146;28;20017;-71
2022/10/08 00:44:57;;;;;;;6.13;1.45;;;15.70;68.60;;;;;;5010636;28;20029;-71
2022/10/08 00:47:31;;;;;;;0.85;0.85;;;15.70;68.90;;;;;;5018548;28;20101;-71
2022/10/08 00:50:14;;;;;;;1.23;0.98;;;15.70;68.80;;;;;;4992923;28;20030;-71
2022/10/08 00:52:47;;;;;;;5.05;0.80;;;15.70;69.10;;;;;;5006053;28;20258;-71
2022/10/08 00:55:15;;;;;;;1.70;1.20;;;15.70;69.20;;;;;;5007049;28;20026;-71
2022/10/08 00:57:42;;;;;;;1.17;0.77;;;15.70;69.30;;;;;;5008581;28;20022;-71
2022/10/08 01:00:20;;;;;;;1.45;0.63;;;15.70;69.70;;;;;;5020953;28;20089;-71
2022/10/08 01:02:46;;;;;;;1.95;1.15;;;15.60;69.80;;;;;;5014391;28;20101;-71
2022/10/08 01:05:16;;;;;;;1.65;0.88;;;15.60;70.10;;;;;;5012680;28;20481;-71
2022/10/08 01:07:53;;;;;;;2.55;1.20;;;15.60;70.60;;;;;;5005898;28;20018;-71
2022/10/08 01:10:45;;;;;;;1.98;1.00;;;15.60;70.90;;;;;;5008809;28;20033;-71
2022/10/08 01:13:40;;;;;;;4.07;1.27;;;15.50;71.40;;;;;;4989688;28;20060;-71
2022/10/08 01:16:38;;;;;;;4.55;1.38;;;15.40;71.90;;;;;;4997631;28;20500;-71
2022/10/08 01:19:37;;;;;;;9.43;1.30;;;15.40;72.50;;;;;;5008345;28;21196;-71
2022/10/08 01:22:35;;;;;;;3.92;1.20;;;15.30;73.00;;;;;;4988635;28;20113;-71
2022/10/08 01:28:29;;;;;;;5.72;2.50;;;15.20;73.30;;;;;;5006378;28;20112;-71
2022/10/08 01:31:05;;;;;;;3.45;1.42;;;15.20;74.00;;;;;;5009027;28;20033;-71
2022/10/08 01:33:41;;;;;;;1.00;0.90;;;15.10;74.30;;;;;;5014675;28;20473;-71
2022/10/08 01:36:10;;;;;;;2.50;1.17;;;15.00;74.60;;;;;;5025753;28;20049;-71
2022/10/08 01:38:41;;;;;;;1.17;0.98;;;15.00;74.80;;;;;;5012425;28;20029;-71
2022/10/08 01:41:08;;;;;;;1.08;0.90;;;15.10;74.90;;;;;;5012411;28;20493;-71
2022/10/08 01:43:39;;;;;;;1.67;1.30;;;15.10;74.90;;;;;;5005049;28;20068;-71
2022/10/08 01:46:12;;;;;;;2.22;0.95;;;15.00;75.30;;;;;;5012010;28;20076;-71
2022/10/08 01:48:40;;;;;;;1.67;0.85;;;15.10;75.60;;;;;;5020786;28;20053;-71
2022/10/08 01:51:16;;;;;;;1.83;1.50;;;15.00;75.80;;;;;;5023692;28;20124;-71
2022/10/08 01:53:44;;;;;;;3.92;1.23;;;15.00;75.60;;;;;;5012425;28;20109;-71
2022/10/08 01:56:17;;;;;;;1.65;1.38;;;15.00;75.40;;;;;;5030098;28;20030;-71
2022/10/08 01:58:53;;;;;;;8.23;1.83;;;15.10;75.70;;;;;;5032017;28;20021;-71
2022/10/08 02:01:56;;;;;;;1.98;1.15;;;15.00;75.70;;;;;;4999624;28;20037;-71
2022/10/08 02:04:32;;;;;;;1.30;1.05;;;15.10;75.80;;;;;;4999586;28;20077;-71
2022/10/08 02:07:10;;;;;;;1.20;1.10;;;15.10;76.00;;;;;;5019649;28;20037;-70
2022/10/08 02:09:39;;;;;;;1.70;1.33;;;15.00;76.10;;;;;;5018379;28;20029;-69
2022/10/08 02:12:06;;;;;;;3.80;1.33;;;14.90;76.60;;;;;;5022441;28;20472;-70
2022/10/08 02:14:34;;;;;;;1.60;1.33;;;14.90;77.20;;;;;;5014587;28;20438;-71
2022/10/08 02:17:19;;;;;;;3.13;0.82;;;14.90;76.70;;;;;;5027179;28;20054;-71
2022/10/08 02:20:17;;;;;;;1.48;0.80;;;14.90;77.10;;;;;;5017002;28;20385;-71
2022/10/08 02:23:00;;;;;;;2.78;1.20;;;14.90;76.90;;;;;;5019399;28;20030;-70
2022/10/08 02:25:52;;;;;;;1.77;1.20;;;14.90;77.20;;;;;;5011073;28;20049;-71
2022/10/08 02:28:37;;;;;;;2.40;1.45;;;14.90;77.10;;;;;;5011946;28;20053;-70
2022/10/08 02:31:12;;;;;;;2.83;1.65;;;14.90;77.10;;;;;;5012114;28;20037;-70
2022/10/08 02:34:05;;;;;;;2.22;1.23;;;14.90;77.80;;;;;;5004660;28;20021;-70
2022/10/08 02:36:37;;;;;;;1.70;1.42;;;14.90;77.90;;;;;;4998275;28;20489;-70
2022/10/08 02:39:04;;;;;;;3.08;1.90;;;14.80;78.40;;;;;;5011374;28;20061;-70
2022/10/08 02:41:37;;;;;;;2.55;1.60;;;14.80;78.30;;;;;;5016211;28;20107;-70
2022/10/08 02:44:07;;;;;;;2.97;1.60;;;14.80;78.40;;;;;;4998302;28;20033;-71
2022/10/08 02:46:37;;;;;;;1.92;1.70;;;14.80;78.70;;;;;;4994377;28;20120;-71
2022/10/08 02:49:30;;;;;;;1.63;1.50;;;14.80;79.30;;;;;;4994194;28;20061;-70
2022/10/08 02:52:00;;;;;;;2.92;1.67;;;14.80;79.10;;;;;;4993587;28;20033;-69
2022/10/08 02:54:30;;;;;;;4.38;2.15;;;14.70;79.00;;;;;;5017068;28;20028;-69
2022/10/08 02:57:05;;;;;;;1.90;1.50;;;14.80;78.90;;;;;;4993964;28;20032;-70
2022/10/08 02:59:32;;;;;;;2.25;1.73;;;14.80;78.90;;;;;;5011728;28;20689;-71
2022/10/08 03:02:00;;;;;;;3.63;1.83;;;14.80;79.20;;;;;;5024451;28;20133;-72
2022/10/08 03:04:35;;;;;;;11.10;2.45;;;14.80;79.00;;;;;;5029400;28;20388;-72
2022/10/08 03:07:01;;;;;;;3.47;2.00;;;14.80;79.40;;;;;;5017315;28;20370;-71
2022/10/08 03:09:43;;;;;;;3.58;2.35;;;14.80;79.50;;;;;;4992753;28;20042;-71
2022/10/08 03:12:09;;;;;;;4.13;2.25;;;14.80;79.80;;;;;;5017274;28;20393;-71
2022/10/08 03:14:39;;;;;;;1.70;1.45;;;14.80;79.90;;;;;;5013618;28;20022;-71
2022/10/08 03:17:13;;;;;;;2.53;1.85;;;14.80;79.90;;;;;;5013130;28;20552;-72
2022/10/08 03:19:38;;;;;;;3.83;2.05;;;14.80;79.90;;;;;;5013800;28;20029;-71
2022/10/08 03:22:06;;;;;;;2.20;2.00;;;14.80;80.00;;;;;;5013795;28;20026;-70
2022/10/08 03:24:32;;;;;;;2.83;1.60;;;14.80;80.00;;;;;;5014515;28;20030;-72
2022/10/08 03:26:58;;;;;;;6.65;2.03;;;14.80;80.00;;;;;;5018972;28;20028;-72
2022/10/08 03:29:24;;;;;;;4.70;1.20;;;14.70;80.10;;;;;;5019639;28;20036;-70
2022/10/08 03:31:50;;;;;;;6.43;2.22;;;14.70;80.10;;;;;;5026879;28;20108;-71
2022/10/08 03:34:16;;;;;;;1.27;1.13;;;14.70;80.30;;;;;;4980614;28;20025;-73
2022/10/08 03:36:42;;;;;;;3.78;1.30;;;14.70;80.10;;;;;;4999331;28;20100;-71
2022/10/08 03:39:11;;;;;;;2.63;1.60;;;14.70;80.10;;;;;;5007787;28;20121;-71
2022/10/08 03:41:37;;;;;;;2.33;1.50;;;14.70;80.10;;;;;;4997141;28;20038;-70
2022/10/08 03:44:05;;;;;;;5.80;2.15;;;14.70;80.40;;;;;;4995552;28;20116;-71
2022/10/08 03:46:31;;;;;;;3.22;1.65;;;14.60;80.70;;;;;;5010434;28;20041;-70
2022/10/08 03:48:57;;;;;;;1.88;1.42;;;14.60;80.90;;;;;;5019607;28;20034;-71
2022/10/08 03:51:22;;;;;;;4.40;1.98;;;14.60;81.10;;;;;;5009805;28;20029;-70
2022/10/08 03:53:48;;;;;;;5.93;1.33;;;14.50;81.20;;;;;;4991098;28;20026;-70
2022/10/08 03:56:17;;;;;;;4.28;1.30;;;14.50;81.10;;;;;;5009160;28;20026;-70
2022/10/08 03:58:43;;;;;;;6.55;1.25;;;14.50;81.20;;;;;;5003343;28;20049;-72
2022/10/08 04:01:14;;;;;;;7.43;1.58;;;14.50;81.40;;;;;;4994759;28;20029;-70
2022/10/08 04:03:40;;;;;;;2.33;1.42;;;14.50;81.60;;;;;;4995196;28;20120;-72
2022/10/08 04:06:07;;;;;;;2.42;1.48;;;14.50;81.60;;;;;;5012680;28;20033;-72
2022/10/08 04:08:33;;;;;;;3.20;1.40;;;14.50;81.50;;;;;;4994238;28;20375;-70
2022/10/08 04:11:10;;;;;;;4.78;2.13;;;14.50;81.30;;;;;;5009746;28;20045;-72
2022/10/08 04:13:36;;;;;;;2.80;1.67;;;14.60;81.20;;;;;;5004821;28;20076;-70
2022/10/08 04:16:04;;;;;;;2.65;1.58;;;14.50;81.10;;;;;;4997453;28;20041;-71
2022/10/08 04:18:30;;;;;;;2.03;1.13;;;14.50;81.20;;;;;;4994831;28;20018;-71
2022/10/08 04:21:00;;;;;;;1.98;1.25;;;14.50;81.40;;;;;;5015710;28;20033;-71
2022/10/08 04:23:27;;;;;;;1.90;1.50;;;14.60;81.30;;;;;;5003698;28;20443;-71
2022/10/08 04:25:53;;;;;;;2.72;1.48;;;14.50;81.10;;;;;;5010981;28;20105;-71
2022/10/08 04:28:20;;;;;;;4.13;2.17;;;14.50;81.10;;;;;;5006379;28;20038;-71
2022/10/08 04:31:00;;;;;;;3.80;2.20;;;14.50;81.20;;;;;;5013352;28;20030;-71
2022/10/08 04:33:27;;;;;;;5.07;2.05;;;14.50;81.30;;;;;;5020240;28;20040;-72
2022/10/08 04:35:54;;;;;;;7.75;2.10;;;14.40;81.50;;;;;;5021280;28;20033;-72
2022/10/08 04:38:20;;;;;;;2.38;1.40;;;14.40;81.50;;;;;;5022418;28;20068;-71
2022/10/08 04:40:46;;;;;;;1.98;1.50;;;14.40;81.50;;;;;;5009601;28;20497;-70
2022/10/08 04:43:12;;;;;;;3.28;1.92;;;14.40;81.60;;;;;;5008992;28;20038;-70
2022/10/08 04:45:44;;;;;;;3.97;1.80;;;14.30;81.90;;;;;;5010819;28;20018;-71
2022/10/08 04:48:11;;;;;;;1.85;1.67;;;14.30;81.90;;;;;;5008722;28;20026;-70
2022/10/08 04:50:37;;;;;;;2.25;1.75;;;14.30;81.90;;;;;;5008414;28;20042;-69
2022/10/08 04:53:04;;;;;;;2.33;1.73;;;14.30;81.80;;;;;;5009933;28;20520;-70
2022/10/08 04:55:29;;;;;;;3.15;2.08;;;14.30;81.70;;;;;;5012655;28;20362;-70
2022/10/08 04:57:55;;;;;;;2.03;1.58;;;14.30;81.90;;;;;;5020591;28;20029;-71
2022/10/08 05:00:20;;;;;;;4.78;3.10;;;14.20;81.90;;;;;;5002791;28;20029;-70
2022/10/08 05:02:46;;;;;;;4.95;2.10;;;14.20;82.10;;;;;;5020196;28;20486;-71
2022/10/08 05:05:12;;;;;;;12.27;2.35;;;14.20;82.10;;;;;;4978374;28;20592;-69
2022/10/08 05:07:38;;;;;;;7.47;2.20;;;14.20;82.20;;;;;;5009951;28;20041;-70
2022/10/08 05:10:04;;;;;;;3.85;1.77;;;14.20;82.80;;;;;;5010051;28;20041;-69
2022/10/08 05:12:29;;;;;;;3.65;1.70;;;14.10;82.70;;;;;;5007905;28;20041;-69
2022/10/08 05:14:55;;;;;;;2.63;1.70;;;14.20;82.70;;;;;;5007738;28;20040;-69
2022/10/08 05:17:20;;;;;;;2.42;1.70;;;14.20;82.50;;;;;;5011688;28;20074;-70
2022/10/08 05:19:46;;;;;;;5.88;1.80;;;14.20;82.50;;;;;;5012805;28;20038;-70
2022/10/08 05:22:12;;;;;;;5.53;2.55;;;14.20;82.50;;;;;;5006591;28;20065;-69
2022/10/08 05:24:37;;;;;;;3.28;2.30;;;14.20;82.60;;;;;;5016697;28;20088;-70
2022/10/08 05:27:03;;;;;;;2.35;2.00;;;14.10;82.60;;;;;;4998283;28;20043;-70
2022/10/08 05:29:29;;;;;;;4.35;1.80;;;14.10;82.70;;;;;;4994046;28;20382;-70
2022/10/08 05:31:55;;;;;;;3.90;2.13;;;14.10;82.70;;;;;;5012589;28;20030;-70
2022/10/08 05:34:20;;;;;;;3.75;2.28;;;14.20;82.50;;;;;;4996125;28;20026;-70
2022/10/08 05:36:46;;;;;;;4.22;2.67;;;14.20;82.50;;;;;;5001587;28;20519;-70
2022/10/08 05:39:12;;;;;;;2.53;1.70;;;14.20;82.40;;;;;;5018096;28;20034;-70
2022/10/08 05:41:39;;;;;;;10.43;2.50;;;14.20;82.40;;;;;;5015670;28;20029;-70
2022/10/08 05:44:05;;;;;;;3.47;2.20;;;14.20;82.50;;;;;;5015192;28;20053;-70
2022/10/08 05:46:33;;;;;;;3.17;2.20;;;14.20;82.40;;;;;;5005641;28;20030;-71
2022/10/08 05:49:01;;;;;;;4.35;1.95;;;14.20;82.40;;;;;;5020235;28;20036;-70
2022/10/08 05:51:28;;;;;;;4.97;2.10;;;14.20;82.50;;;;;;5014737;28;20444;-70
2022/10/08 05:53:55;;;;;;;3.05;2.35;;;14.20;82.50;;;;;;5014775;28;20032;-70
2022/10/08 05:56:23;;;;;;;3.85;1.90;;;14.20;82.50;;;;;;5017485;28;20440;-69
2022/10/08 05:58:49;;;;;;;5.80;2.25;;;14.20;82.50;;;;;;5018753;28;20404;-70
2022/10/08 06:01:21;;;;;;;4.20;2.22;;;14.20;82.70;;;;;;4995291;28;20057;-70
2022/10/08 06:03:54;;;;;;;7.65;3.10;;;14.10;82.90;;;;;;5011210;28;20555;-69
2022/10/08 06:06:21;;;;;;;2.67;2.17;;;14.10;83.30;;;;;;5010881;28;20524;-69
2022/10/08 06:08:51;;;;;;;3.50;2.28;;;14.10;83.30;;;;;;4994606;28;20093;-70
2022/10/08 06:11:17;;;;;;;5.43;2.47;;;14.10;83.20;;;;;;5011423;28;20113;-69
2022/10/08 06:13:43;;;;;;;3.13;2.35;;;14.10;83.10;;;;;;4994479;28;20386;-71
2022/10/08 06:16:10;;;;;;;9.77;2.28;;;14.10;83.20;;;;;;5011574;28;20053;-71
2022/10/08 06:18:38;;;;;;;1.92;1.58;;;14.10;83.40;;;;;;5012700;28;20124;-71
2022/10/08 06:21:13;;;;;;;2.25;1.40;;;14.10;83.30;;;;;;5002247;28;20053;-70
2022/10/08 06:23:44;;;;;;;10.88;3.50;;;14.10;83.30;;;;;;5001379;28;20508;-71
2022/10/08 06:26:09;;;;;;;2.22;1.60;;;14.10;83.20;;;;;;5021405;28;20350;-70
2022/10/08 06:28:37;;;;;;;3.03;1.83;;;14.20;83.20;;;;;;5014756;28;20026;-70
2022/10/08 06:31:04;;;;;;;3.33;1.92;;;14.10;83.10;;;;;;4992574;28;20033;-71
2022/10/08 06:33:30;;;;;;;3.25;2.40;;;14.10;83.10;;;;;;5010260;28;20448;-70
2022/10/08 06:36:01;;;;;;;7.05;2.40;;;14.10;83.10;;;;;;5010427;28;20117;-71
2022/10/08 06:38:26;;;;;;;2.25;1.70;;;14.10;83.30;;;;;;5014023;28;20028;-70
2022/10/08 06:40:52;;;;;;;4.53;2.42;;;14.10;83.40;;;;;;4996154;28;20117;-70
2022/10/08 06:43:18;;;;;;;5.03;2.40;;;14.10;83.30;;;;;;5013356;28;20034;-71
2022/10/08 06:45:45;;;;;;;4.13;2.28;;;14.10;83.50;;;;;;4993800;28;20031;-71
2022/10/08 06:48:12;;;;;;;2.35;1.65;;;14.10;83.60;;;;;;5009526;28;20022;-71
2022/10/08 06:50:38;;;;;;;2.45;1.63;;;14.10;83.50;;;;;;5011846;28;20064;-71
2022/10/08 06:53:05;;;;;;;4.82;2.08;;;14.10;83.20;;;;;;4991698;28;20065;-72
2022/10/08 06:55:32;;;;;;;4.20;2.30;;;14.10;83.10;;;;;;5025750;28;20468;-71
2022/10/08 06:57:58;;;;;;;2.50;2.08;;;14.10;83.10;;;;;;4993767;28;20026;-71
2022/10/08 07:00:24;;;;;;;3.30;2.08;;;14.10;83.10;;;;;;5014276;28;20076;-71
2022/10/08 07:02:49;;;;;;;10.05;2.78;;;14.10;83.10;;;;;;5013933;28;20026;-72
2022/10/08 07:05:15;;;;;;;2.20;1.40;;;14.10;83.10;;;;;;5013135;28;20125;-71
2022/10/08 07:07:41;;;;;;;2.38;1.55;;;14.10;83.00;;;;;;5003432;28;20028;-71
2022/10/08 07:10:07;;;;;;;4.72;2.22;;;14.10;82.80;;;;;;4990574;28;20034;-68
2022/10/08 07:12:32;;;;;;;3.90;2.15;;;14.10;82.80;;;;;;5013740;28;20072;-70
2022/10/08 07:14:58;;;;;;;4.32;2.17;;;14.10;82.70;;;;;;5011615;28;20065;-69
2022/10/08 07:17:27;;;;;;;2.75;1.73;;;14.20;82.80;;;;;;5011815;28;20065;-71
2022/10/08 07:19:53;;;;;;;3.00;2.08;;;14.20;82.70;;;;;;5010954;28;20088;-70
2022/10/08 07:22:19;;;;;;;3.72;1.92;;;14.30;82.60;;;;;;5006501;28;20035;-70
2022/10/08 07:24:45;;;;;;;3.72;1.85;;;14.30;82.50;;;;;;5013215;28;20026;-69
2022/10/08 07:27:11;;;;;;;4.50;1.92;;;14.30;82.50;;;;;;5020957;28;20037;-70
2022/10/08 07:29:36;;;;;;;3.55;1.38;;;14.30;82.30;;;;;;5020321;28;20087;-72
2022/10/08 07:32:02;;;;;;;3.75;2.60;;;14.40;82.20;;;;;;5011639;28;20037;-71
2022/10/08 07:34:28;;;;;;;2.97;1.80;;;14.40;82.20;;;;;;5014404;28;20034;-71
2022/10/08 07:36:54;;;;;;;3.20;1.92;;;14.40;82.00;;;;;;5017400;28;20077;-69
2022/10/08 07:39:20;;;;;;;2.67;1.35;;;14.50;82.10;;;;;;5009996;28;20041;-70
2022/10/08 07:41:46;;;;;;;4.25;1.58;;;14.60;81.90;;;;;;5009955;28;20377;-70
2022/10/08 07:44:14;;;;;;;4.25;1.80;;;14.60;81.80;;;;;;5008776;28;20052;-70
2022/10/08 07:46:48;;;;;;;3.70;1.90;;;14.70;81.60;;;;;;5008298;28;20520;-69
2022/10/08 07:49:16;;;;;;;4.15;1.25;;;14.70;81.50;;;;;;5000271;28;20493;-72
2022/10/08 07:51:42;;;;;;;1.08;1.00;;;14.70;81.40;;;;;;5002727;28;20026;-70
2022/10/08 07:54:11;;;;;;;4.15;1.77;;;14.80;81.10;;;;;;5009858;28;20030;-69
2022/10/08 07:56:37;;;;;;;1.17;1.05;;;14.90;80.90;;;;;;5012877;28;20443;-69
2022/10/08 07:59:03;;;;;;;1.67;1.13;;;14.90;80.50;;;;;;4988194;28;20176;-70
2022/10/08 08:01:30;;;;;;;2.85;0.88;;;14.90;80.30;;;;;;5013679;28;20401;-72
2022/10/08 08:04:05;;;;;;;2.10;1.25;;;15.00;80.20;;;;;;4993309;28;20489;-71
2022/10/08 08:06:33;;;;;;;2.85;1.02;;;15.00;79.60;;;;;;5012471;28;20481;-71
2022/10/08 08:09:00;;;;;;;1.13;0.60;;;15.00;79.40;;;;;;5014384;28;20091;-71
2022/10/08 08:11:26;;;;;;;0.80;0.50;;;15.10;79.30;;;;;;5008211;28;20037;-71
2022/10/08 08:13:52;;;;;;;1.98;0.63;;;15.20;79.20;;;;;;5008228;28;20041;-71
2022/10/08 08:16:21;;;;;;;2.95;1.15;;;15.20;78.70;;;;;;5001368;28;20054;-71
2022/10/08 08:18:48;;;;;;;1.73;0.85;;;15.30;77.90;;;;;;5011066;28;20018;-71
2022/10/08 08:21:20;;;;;;;11.95;1.25;;;15.30;77.50;;;;;;5015216;28;20125;-71
2022/10/08 08:23:48;;;;;;;1.48;0.90;;;15.30;77.00;;;;;;5012045;28;20054;-71
2022/10/08 08:26:23;;;;;;;3.30;1.15;;;15.30;77.30;;;;;;5012175;28;20111;-71
2022/10/08 08:28:56;;;;;;;2.03;0.50;;;15.30;76.60;;;;;;5012578;28;20029;-71
2022/10/08 08:31:25;;;;;;;1.83;0.65;;;15.40;76.50;;;;;;5014014;28;20030;-71
2022/10/08 08:33:53;;;;;;;3.75;0.93;;;15.50;76.30;;;;;;4993535;28;20109;-72
2022/10/08 08:36:28;;;;;;;1.88;0.80;;;15.50;75.80;;;;;;5010546;28;20034;-71
2022/10/08 08:38:55;;;;;;;2.15;0.73;;;15.60;75.40;;;;;;5012370;28;20018;-71
2022/10/08 08:41:47;;;;;;;0.70;0.57;;;15.60;75.30;;;;;;5008026;28;20197;-70
2022/10/08 08:44:15;;;;;;;1.40;0.60;;;15.70;74.90;;;;;;5004636;28;20018;-71
2022/10/08 08:46:46;;;;;;;0.77;0.60;;;15.70;74.80;;;;;;5004870;28;20458;-70
2022/10/08 08:49:56;;;;;;;0.77;0.52;;;15.80;74.60;;;;;;5012896;28;20477;-72
2022/10/08 08:52:25;;;;;;;1.17;0.98;;;16.00;74.50;;;;;;4960388;28;20107;-71
2022/10/08 08:54:53;;;;;;;0.63;0.47;;;16.10;74.00;;;;;;4953654;28;20037;-72
2022/10/08 08:57:41;;;;;;;6.30;0.70;;;16.20;73.70;;;;;;4973160;28;20065;-69
2022/10/08 09:00:15;;;;;;;1.17;0.47;;;16.40;72.90;;;;;;5005846;28;20464;-70
2022/10/08 09:02:58;;;;;;;2.78;0.90;;;16.50;70.70;;;;;;5010136;28;20033;-70
2022/10/08 09:05:27;;;;;;;0.68;0.60;;;16.50;70.80;;;;;;5026760;28;20448;-70
2022/10/08 09:08:06;;;;;;;0.68;0.45;;;16.60;70.60;;;;;;4998186;28;20033;-71
2022/10/08 09:10:41;;;;;;;2.50;0.43;;;16.70;69.50;;;;;;5016855;28;20512;-70
2022/10/08 09:13:20;;;;;;;0.93;0.65;;;16.80;69.60;;;;;;5019477;28;20017;-70
2022/10/08 09:15:46;;;;;;;0.95;0.50;;;17.10;69.10;;;;;;5017128;28;20025;-69
2022/10/08 09:18:14;;;;;;;1.55;0.88;;;17.20;69.20;;;;;;5013769;28;20052;-71
2022/10/08 09:20:40;;;;;;;2.40;0.88;;;17.30;68.20;;;;;;5006522;28;20057;-71
2022/10/08 09:23:14;;;;;;;1.80;0.50;;;17.40;67.60;;;;;;5016357;28;20022;-71
2022/10/08 09:25:40;;;;;;;1.77;0.80;;;17.60;67.50;;;;;;5025831;28;20020;-72
2022/10/08 09:28:06;;;;;;;3.70;0.82;;;17.70;66.70;;;;;;5021683;28;20033;-71
2022/10/08 09:30:43;;;;;;;4.97;0.80;;;17.70;65.90;;;;;;5006351;28;20031;-71
2022/10/08 09:33:16;;;;;;;2.03;0.98;;;17.70;65.60;;;;;;5013426;28;20084;-71
2022/10/08 09:35:50;;;;;;;3.22;0.65;;;17.80;64.00;;;;;;5030748;28;20053;-71
2022/10/08 09:38:29;;;;;;;0.80;0.75;;;17.80;63.50;;;;;;5019834;28;20120;-70
2022/10/08 09:41:04;;;;;;;2.67;1.05;;;17.80;63.10;;;;;;5002767;28;20036;-72
2022/10/08 09:43:32;;;;;;;0.90;0.70;;;17.70;63.70;;;;;;5014582;28;20057;-71
2022/10/08 09:45:58;;;;;;;0.98;0.63;;;17.60;63.70;;;;;;5000714;28;20026;-71
2022/10/08 09:48:29;;;;;;;2.20;0.55;;;17.50;63.40;;;;;;5024793;28;20100;-71
2022/10/08 09:51:03;;;;;;;0.63;0.57;;;17.40;63.40;;;;;;5016518;28;20485;-72
2022/10/08 09:53:43;;;;;;;2.50;0.50;;;17.30;64.00;;;;;;5014398;28;20489;-71
2022/10/08 09:56:11;;;;;;;1.45;0.57;;;17.20;63.40;;;;;;5023329;28;20477;-70
2022/10/08 09:58:52;;;;;;;1.55;0.73;;;17.00;64.20;;;;;;5009927;28;20034;-70
2022/10/08 10:01:18;;;;;;;0.40;0.40;;;16.90;63.50;;;;;;5004016;28;20478;-70
2022/10/08 10:03:54;;;;;;;1.40;0.43;;;16.70;63.80;;;;;;5008200;28;20029;-70
2022/10/08 10:06:32;;;;;;;0.65;0.52;;;16.60;64.60;;;;;;4988149;28;20562;-71
2022/10/08 10:09:25;;;;;;;1.30;0.43;;;16.60;64.40;;;;;;5003509;28;20026;-70
2022/10/08 10:12:26;;;;;;;3.55;0.95;;;16.60;64.60;;;;;;4985692;28;20022;-71
2022/10/08 10:15:16;;;;;;;1.55;0.80;;;16.70;64.90;;;;;;5002932;28;20037;-69
2022/10/08 10:17:58;;;;;;;1.65;0.73;;;17.00;64.00;;;;;;5008229;28;20410;-69
2022/10/08 10:20:40;;;;;;;0.70;0.57;;;17.30;62.40;;;;;;5001110;28;20511;-70
2022/10/08 10:23:32;;;;;;;0.88;0.63;;;17.60;61.70;;;;;;5013257;28;20344;-71
2022/10/08 10:26:20;;;;;;;0.40;0.40;;;17.80;61.80;;;;;;5014737;28;20061;-72
2022/10/08 10:28:49;;;;;;;0.60;0.43;;;18.00;60.40;;;;;;5018923;28;20690;-72
2022/10/08 10:31:27;;;;;;;1.70;0.80;;;18.10;60.60;;;;;;5027426;28;20021;-72
2022/10/08 10:34:07;;;;;;;0.50;0.50;;;18.30;59.90;;;;;;5013619;28;20037;-72
2022/10/08 10:36:44;;;;;;;3.78;0.88;;;18.40;59.50;;;;;;4996958;28;20501;-72
2022/10/08 10:39:28;;;;;;;1.52;0.60;;;18.40;59.10;;;;;;5014961;28;20030;-72
2022/10/08 10:42:08;;;;;;;1.13;0.65;;;18.20;58.80;;;;;;5032936;28;20380;-73
2022/10/08 10:45:12;;;;;;;0.77;0.30;;;18.00;58.70;;;;;;5028461;28;20377;-72
2022/10/08 10:47:38;;;;;;;2.65;0.28;;;17.70;59.50;;;;;;4995158;28;20029;-72
2022/10/08 10:50:06;;;;;;;1.40;0.63;;;17.40;60.10;;;;;;5001707;28;20040;-72
2022/10/08 10:52:53;;;;;;;1.40;0.52;;;17.30;60.40;;;;;;5027560;28;20041;-72
2022/10/08 10:55:27;;;;;;;0.63;0.40;;;17.20;60.90;;;;;;5013786;28;20384;-72
2022/10/08 10:58:08;;;;;;;1.20;0.60;;;17.10;61.00;;;;;;5014631;28;20038;-72
2022/10/08 11:00:57;;;;;;;1.88;0.50;;;17.00;61.30;;;;;;5015953;28;20080;-72
2022/10/08 11:03:50;;;;;;;3.35;0.88;;;17.10;61.70;;;;;;5014335;28;20030;-72
2022/10/08 11:06:40;;;;;;;0.70;0.40;;;17.40;61.30;;;;;;5016980;28;20022;-71
2022/10/08 11:09:24;;;;;;;4.57;1.05;;;17.70;60.90;;;;;;5027007;28;20083;-72
2022/10/08 11:11:54;;;;;;;4.45;1.13;;;18.10;60.40;;;;;;5008027;28;20378;-70
2022/10/08 11:14:43;;;;;;;0.50;0.50;;;18.30;60.20;;;;;;5009408;28;20026;-71
2022/10/08 11:17:12;;;;;;;0.35;0.35;;;18.70;59.70;;;;;;5008646;28;20046;-70
2022/10/08 11:19:56;;;;;;;8.50;0.65;;;19.00;59.40;;;;;;4985004;28;20030;-70
2022/10/08 11:22:47;;;;;;;0.57;0.45;;;19.10;58.80;;;;;;4988451;28;20038;-71
2022/10/08 11:25:36;;;;;;;0.88;0.55;;;19.30;59.10;;;;;;4995117;28;20018;-72
2022/10/08 11:28:27;;;;;;;1.45;1.00;;;19.50;58.20;;;;;;5023763;28;20167;-71
2022/10/08 11:31:14;;;;;;;0.38;0.30;;;19.50;58.30;;;;;;5009778;28;20026;-71
2022/10/08 11:33:43;;;;;;;0.50;0.40;;;19.70;58.30;;;;;;5003163;28;20030;-71
2022/10/08 11:36:22;;;;;;;0.70;0.40;;;19.70;57.70;;;;;;4993082;28;20018;-71
2022/10/08 11:38:54;;;;;;;1.27;0.52;;;19.70;57.90;;;;;;5007901;28;20497;-71
2022/10/08 11:41:26;;;;;;;1.02;0.77;;;19.90;58.20;;;;;;5007824;28;20030;-71
2022/10/08 11:43:59;;;;;;;6.75;0.80;;;20.10;58.00;;;;;;5005521;28;20029;-71
2022/10/08 11:46:28;;;;;;;0.73;0.50;;;20.10;56.70;;;;;;4988770;28;20018;-72
2022/10/08 11:48:59;;;;;;;0.90;0.40;;;19.80;56.10;;;;;;5017317;28;20037;-71
2022/10/08 11:51:25;;;;;;;1.27;0.57;;;19.80;57.00;;;;;;5014448;28;20025;-71
2022/10/08 11:54:17;;;;;;;0.30;0.30;;;19.70;55.60;;;;;;5014332;28;20030;-72
2022/10/08 11:56:48;;;;;;;1.50;0.80;;;19.70;55.40;;;;;;5007122;28;20064;-70
2022/10/08 11:59:23;;;;;;;0.30;0.30;;;19.70;55.90;;;;;;4990613;28;20044;-71
2022/10/08 12:01:55;;;;;;;0.30;0.30;;;19.70;56.10;;;;;;5007903;28;20033;-71
2022/10/08 12:04:33;;;;;;;6.88;0.47;;;19.80;56.20;;;;;;5007629;28;20038;-70
2022/10/08 12:07:07;;;;;;;4.75;0.52;;;20.00;54.90;;;;;;5010369;28;20018;-71
2022/10/08 12:10:00;;;;;;;0.30;0.30;;;19.90;55.10;;;;;;5007264;28;20108;-71
2022/10/08 12:13:04;;;;;;;1.60;0.82;;;20.00;55.00;;;;;;4982780;28;20049;-71
2022/10/08 12:15:32;;;;;;;0.65;0.35;;;20.00;53.90;;;;;;5000901;28;20483;-71
2022/10/08 12:18:22;;;;;;;2.95;0.85;;;19.90;54.70;;;;;;5008028;28;20049;-71
2022/10/08 12:21:19;;;;;;;1.00;0.57;;;20.00;54.30;;;;;;5011341;28;20037;-72
2022/10/08 12:23:45;;;;;;;1.20;0.40;;;20.20;53.70;;;;;;5003566;28;20101;-72
2022/10/08 12:26:15;;;;;;;0.85;0.30;;;20.20;53.60;;;;;;4976750;28;20040;-71
2022/10/08 12:28:40;;;;;;;0.47;0.47;;;20.40;53.70;;;;;;4997046;28;20026;-70
2022/10/08 12:31:38;;;;;;;1.95;0.75;;;20.30;53.20;;;;;;5010686;28;20079;-71
2022/10/08 12:34:17;;;;;;;1.45;0.30;;;20.00;52.80;;;;;;4976880;28;20036;-72
2022/10/08 12:37:05;;;;;;;2.63;0.50;;;19.80;53.80;;;;;;4994016;28;20069;-70
2022/10/08 12:39:42;;;;;;;0.85;0.50;;;19.80;53.20;;;;;;4993652;28;20026;-71
2022/10/08 12:42:10;;;;;;;2.58;0.70;;;20.00;52.70;;;;;;4993748;28;20069;-71
2022/10/08 12:45:12;;;;;;;0.75;0.45;;;20.10;52.00;;;;;;4993505;28;20072;-71
2022/10/08 12:47:48;;;;;;;6.57;1.05;;;20.30;50.90;;;;;;4993945;28;20030;-71
2022/10/08 12:50:37;;;;;;;2.00;0.55;;;20.30;50.70;;;;;;4993867;28;20041;-70
2022/10/08 12:53:04;;;;;;;0.73;0.50;;;20.40;50.70;;;;;;4993791;28;20027;-71
2022/10/08 12:55:35;;;;;;;0.80;0.50;;;20.40;50.80;;;;;;5000534;28;20444;-70
2022/10/08 12:58:01;;;;;;;1.42;0.70;;;20.40;51.40;;;;;;5008087;28;20032;-70
2022/10/08 13:00:32;;;;;;;1.45;0.40;;;20.40;51.40;;;;;;5001342;28;20129;-70
2022/10/08 13:03:01;;;;;;;1.03;0.77;;;20.20;52.40;;;;;;5007321;28;20092;-70
2022/10/08 13:05:39;;;;;;;2.72;0.40;;;20.10;54.50;;;;;;5007595;28;20022;-70
2022/10/08 13:08:26;;;;;;;1.35;0.85;;;20.10;56.20;;;;;;4988851;28;20211;-70
2022/10/08 13:10:51;;;;;;;1.85;0.68;;;20.10;56.60;;;;;;5026016;28;20026;-71
2022/10/08 13:13:39;;;;;;;0.95;0.70;;;20.50;55.30;;;;;;5029438;28;20101;-70
2022/10/08 13:16:46;;;;;;;1.55;0.60;;;21.30;53.40;;;;;;4993609;28;20430;-71